createdAt,value
2018-08-04T00:00:05.227Z,41.9
2018-08-04T00:02:06.097Z,41.8
2018-08-04T00:04:05.078Z,41.8
2018-08-04T00:06:05.782Z,41.8
2018-08-04T00:08:10.553Z,41.8
2018-08-04T00:10:05.366Z,41.8
2018-08-04T00:12:05.179Z,41.7
2018-08-04T00:14:05.965Z,41.7
2018-08-04T00:16:05.686Z,41.8
2018-08-04T00:18:05.676Z,41.8
2018-08-04T00:20:05.768Z,41.7
2018-08-04T00:22:05.968Z,41.8
2018-08-04T00:24:05.661Z,41.8
2018-08-04T00:26:05.868Z,41.5
2018-08-04T00:28:05.079Z,41.4
2018-08-04T00:30:05.750Z,41.3
2018-08-04T00:32:05.408Z,41.3
2018-08-04T00:34:07.684Z,41
2018-08-04T00:36:05.406Z,41.1
2018-08-04T00:38:05.070Z,41
2018-08-04T00:40:05.739Z,41.1
2018-08-04T00:42:07.961Z,40.8
2018-08-04T00:44:05.184Z,40.8
2018-08-04T00:46:05.932Z,40.9
2018-08-04T00:48:05.656Z,41
2018-08-04T00:50:08.416Z,40.8
2018-08-04T00:52:10.194Z,40.8
2018-08-04T00:54:05.424Z,40.6
2018-08-04T00:56:07.652Z,40.6
2018-08-04T00:58:07.877Z,40.7
2018-08-04T01:00:05.574Z,40.5
2018-08-04T01:02:05.241Z,40.6
2018-08-04T01:04:08.494Z,40.5
2018-08-04T01:06:05.164Z,40.5
2018-08-04T01:08:05.845Z,40.5
2018-08-04T01:10:05.581Z,40.4
2018-08-04T01:12:05.274Z,40.4
2018-08-04T01:14:08.481Z,40.4
2018-08-04T01:16:05.168Z,40.4
2018-08-04T01:18:05.052Z,40.4
2018-08-04T01:20:08.255Z,40.5
2018-08-04T01:22:06.001Z,40.5
2018-08-04T01:24:15.843Z,40.7
2018-08-04T01:26:05.482Z,40.5
2018-08-04T01:28:05.161Z,40.6
2018-08-04T01:30:05.841Z,40.5
2018-08-04T01:32:05.543Z,40.6
2018-08-04T01:34:05.427Z,40.5
2018-08-04T01:36:05.493Z,40.5
2018-08-04T01:38:07.720Z,40.5
2018-08-04T01:40:05.975Z,40.5
2018-08-04T01:42:05.672Z,40.6
2018-08-04T01:44:11.030Z,40.8
2018-08-04T01:46:05.799Z,40.7
2018-08-04T01:48:05.586Z,40.5
2018-08-04T01:50:10.343Z,40.8
2018-08-04T01:52:05.099Z,40.9
2018-08-04T01:54:05.725Z,40.7
2018-08-04T01:56:05.446Z,40.8
2018-08-04T01:58:05.104Z,40.7
2018-08-04T02:00:05.772Z,40.7
2018-08-04T02:02:05.500Z,40.8
2018-08-04T02:04:07.743Z,40.6
2018-08-04T02:06:07.957Z,40.8
2018-08-04T02:08:05.677Z,40.8
2018-08-04T02:10:05.440Z,40.8
2018-08-04T02:12:06.226Z,40.9
2018-08-04T02:14:05.958Z,40.8
2018-08-04T02:16:08.228Z,40.3
2018-08-04T02:18:05.092Z,40.7
2018-08-04T02:20:05.755Z,41
2018-08-04T02:22:06.051Z,41
2018-08-04T02:24:05.851Z,41.1
2018-08-04T02:26:08.124Z,41.1
2018-08-04T02:28:05.394Z,41.1
2018-08-04T02:30:05.093Z,41.2
2018-08-04T02:32:05.771Z,41.2
2018-08-04T02:34:05.482Z,41.2
2018-08-04T02:36:07.750Z,41.3
2018-08-04T02:38:05.973Z,41.3
2018-08-04T02:40:10.743Z,41.5
2018-08-04T02:42:05.431Z,41.5
2018-08-04T02:44:05.245Z,41.4
2018-08-04T02:46:06.010Z,41.4
2018-08-04T02:48:05.772Z,41.4
2018-08-04T02:50:05.473Z,41.5
2018-08-04T02:52:05.274Z,41.5
2018-08-04T02:54:05.468Z,41.5
2018-08-04T02:56:07.700Z,41.5
2018-08-04T02:58:05.530Z,41.5
2018-08-04T03:00:05.296Z,41.5
2018-08-04T03:02:05.040Z,41.5
2018-08-04T03:04:08.348Z,41.3
2018-08-04T03:06:05.024Z,41.3
2018-08-04T03:08:05.761Z,41.4
2018-08-04T03:10:05.949Z,41.5
2018-08-04T03:12:05.602Z,41.3
2018-08-04T03:14:05.292Z,41.3
2018-08-04T03:16:05.959Z,41.3
2018-08-04T03:18:05.907Z,41.3
2018-08-04T03:20:08.206Z,41.2
2018-08-04T03:22:05.927Z,41.3
2018-08-04T03:24:05.152Z,41.4
2018-08-04T03:26:08.439Z,41.5
2018-08-04T03:28:05.117Z,41.5
2018-08-04T03:30:05.367Z,41.3
2018-08-04T03:32:05.121Z,41.4
2018-08-04T03:34:05.900Z,41.4
2018-08-04T03:36:05.676Z,41.5
2018-08-04T03:38:05.921Z,41.6
2018-08-04T03:40:05.600Z,41.5
2018-08-04T03:42:07.836Z,41.5
2018-08-04T03:44:07.998Z,41.3
2018-08-04T03:46:08.244Z,41.4
2018-08-04T03:48:11.005Z,41.4
2018-08-04T03:50:05.680Z,41.4
2018-08-04T03:52:05.491Z,41.4
2018-08-04T03:54:10.860Z,41.3
2018-08-04T03:56:05.576Z,41.3
2018-08-04T03:58:05.304Z,41.1
2018-08-04T04:00:08.535Z,41.4
2018-08-04T04:02:10.269Z,41.5
2018-08-04T04:04:06.021Z,41.5
2018-08-04T04:06:05.334Z,41.4
2018-08-04T04:08:05.571Z,41.6
2018-08-04T04:10:05.261Z,41.6
2018-08-04T04:12:08.484Z,41.7
2018-08-04T04:14:10.196Z,41.7
2018-08-04T04:16:05.981Z,41.7
2018-08-04T04:18:05.844Z,41.6
2018-08-04T04:20:05.583Z,41.6
2018-08-04T04:22:05.328Z,41.9
2018-08-04T04:24:05.271Z,41.9
2018-08-04T04:26:08.528Z,41.9
2018-08-04T04:28:10.329Z,41.8
2018-08-04T04:30:05.059Z,41.8
2018-08-04T04:32:08.259Z,41.8
2018-08-04T04:34:06.018Z,41.8
2018-08-04T04:36:05.718Z,41.9
2018-08-04T04:38:07.903Z,41.9
2018-08-04T04:40:05.589Z,41.9
2018-08-04T04:42:05.224Z,42
2018-08-04T04:44:05.403Z,42
2018-08-04T04:46:07.656Z,42
2018-08-04T04:48:05.332Z,42
2018-08-04T04:50:06.026Z,42.1
2018-08-04T04:52:14.167Z,42.7
2018-08-04T04:54:05.132Z,42.2
2018-08-04T04:56:05.830Z,42
2018-08-04T04:58:08.028Z,41.9
2018-08-04T05:00:05.727Z,41.9
2018-08-04T05:02:05.710Z,42.1
2018-08-04T05:04:05.736Z,42.1
2018-08-04T05:06:08.000Z,42.1
2018-08-04T05:08:05.277Z,42.1
2018-08-04T05:10:06.027Z,42.2
2018-08-04T05:12:05.744Z,42.3
2018-08-04T05:14:05.463Z,42.3
2018-08-04T05:16:07.764Z,42.3
2018-08-04T05:18:10.789Z,42.4
2018-08-04T05:20:05.490Z,42.4
2018-08-04T05:22:10.201Z,42.3
2018-08-04T05:24:05.888Z,42.3
2018-08-04T05:26:05.646Z,42.3
2018-08-04T05:28:05.364Z,42.3
2018-08-04T05:30:05.553Z,42.3
2018-08-04T05:32:08.037Z,42.6
2018-08-04T05:34:07.970Z,42.4
2018-08-04T05:36:05.683Z,42.4
2018-08-04T05:38:05.368Z,42.5
2018-08-04T05:40:05.144Z,42.5
2018-08-04T05:42:10.439Z,42.8
2018-08-04T05:44:05.634Z,42.7
2018-08-04T05:46:05.417Z,42.8
2018-08-04T05:48:07.681Z,43.1
2018-08-04T05:50:05.509Z,43.1
2018-08-04T05:52:05.288Z,43
2018-08-04T05:54:06.037Z,42.9
2018-08-04T05:56:10.798Z,42.8
2018-08-04T05:58:05.729Z,42.8
2018-08-04T06:00:07.925Z,42.9
2018-08-04T06:02:08.120Z,42.8
2018-08-04T06:04:05.780Z,42.8
2018-08-04T06:06:05.533Z,43
2018-08-04T06:08:05.269Z,43
2018-08-04T06:10:08.475Z,43.3
2018-08-04T06:12:05.184Z,43.1
2018-08-04T06:14:05.858Z,43.1
2018-08-04T06:16:05.636Z,43.2
2018-08-04T06:18:05.528Z,43.3
2018-08-04T06:20:05.235Z,43.4
2018-08-04T06:22:06.078Z,43.3
2018-08-04T06:24:05.998Z,43.5
2018-08-04T06:26:05.741Z,43.3
2018-08-04T06:28:05.480Z,43.3
2018-08-04T06:30:10.347Z,43.3
2018-08-04T06:32:07.591Z,43.5
2018-08-04T06:34:07.915Z,43.4
2018-08-04T06:36:13.196Z,43.3
2018-08-04T06:38:06.857Z,43.3
2018-08-04T06:40:10.590Z,43.4
2018-08-04T06:42:05.764Z,43.4
2018-08-04T06:44:08.000Z,43.6
2018-08-04T06:46:05.231Z,43.6
2018-08-04T06:48:05.911Z,43.5
2018-08-04T06:50:05.621Z,43.5
2018-08-04T06:52:05.324Z,43.6
2018-08-04T06:54:10.058Z,43.6
2018-08-04T06:56:10.847Z,43.5
2018-08-04T06:58:05.682Z,43.5
2018-08-04T07:00:05.385Z,43.6
2018-08-04T07:02:10.183Z,43.4
2018-08-04T07:04:05.929Z,43.6
2018-08-04T07:06:08.266Z,43.4
2018-08-04T07:08:05.936Z,43.4
2018-08-04T07:10:08.163Z,43.7
2018-08-04T07:12:05.818Z,43.7
2018-08-04T07:14:05.495Z,43.5
2018-08-04T07:16:05.203Z,43.5
2018-08-04T07:18:05.041Z,43.4
2018-08-04T07:20:05.221Z,43.8
2018-08-04T07:22:05.965Z,43.9
2018-08-04T07:24:05.824Z,43.8
2018-08-04T07:26:05.594Z,43.7
2018-08-04T07:28:05.361Z,43.9
2018-08-04T07:30:07.543Z,44.3
2018-08-04T07:32:05.229Z,44.4
2018-08-04T07:34:05.951Z,44.3
2018-08-04T07:36:13.233Z,44.1
2018-08-04T07:38:05.987Z,44.1
2018-08-04T07:40:05.700Z,44.1
2018-08-04T07:42:05.377Z,44
2018-08-04T07:44:05.067Z,44.1
2018-08-04T07:46:05.280Z,44.1
2018-08-04T07:48:05.943Z,43.9
2018-08-04T07:50:10.773Z,44.1
2018-08-04T07:52:05.509Z,44.1
2018-08-04T07:54:05.222Z,44.2
2018-08-04T07:56:08.441Z,44.1
2018-08-04T07:58:05.164Z,44.1
2018-08-04T08:00:05.843Z,44.1
2018-08-04T08:02:05.555Z,44.2
2018-08-04T08:04:05.540Z,44.2
2018-08-04T08:06:05.256Z,44.2
2018-08-04T08:08:10.966Z,44.3
2018-08-04T08:10:05.767Z,44.3
2018-08-04T08:12:08.542Z,44.4
2018-08-04T08:14:07.815Z,44.5
2018-08-04T08:16:10.547Z,44.6
2018-08-04T08:18:05.487Z,44.6
2018-08-04T08:20:05.600Z,44.6
2018-08-04T08:22:05.598Z,44.6
2018-08-04T08:24:05.509Z,44.6
2018-08-04T08:26:05.196Z,44.7
2018-08-04T08:28:05.900Z,44.9
2018-08-04T08:30:05.678Z,44.8
2018-08-04T08:32:05.388Z,44.9
2018-08-04T08:34:07.670Z,44.9
2018-08-04T08:36:05.328Z,44.9
2018-08-04T08:38:05.984Z,44.8
2018-08-04T08:40:10.739Z,44.8
2018-08-04T08:42:05.942Z,44.8
2018-08-04T08:44:05.792Z,44.9
2018-08-04T08:46:13.111Z,44.7
2018-08-04T08:48:05.853Z,44.7
2018-08-04T08:50:05.563Z,44.8
2018-08-04T08:52:05.988Z,44.8
2018-08-04T08:54:06.066Z,44.9
2018-08-04T08:56:05.527Z,44.9
2018-08-04T08:58:05.208Z,44.9
2018-08-04T09:00:13.530Z,44.7
2018-08-04T09:02:05.203Z,44.7
2018-08-04T09:04:05.889Z,44.8
2018-08-04T09:06:05.568Z,44.8
2018-08-04T09:08:05.257Z,44.9
2018-08-04T09:10:10.578Z,44.9
2018-08-04T09:12:05.257Z,44.9
2018-08-04T09:14:05.947Z,44.8
2018-08-04T09:16:05.675Z,44.8
2018-08-04T09:18:13.156Z,44.6
2018-08-04T09:20:05.803Z,44.8
2018-08-04T09:22:08.070Z,44.6
2018-08-04T09:24:05.767Z,44.5
2018-08-04T09:26:05.414Z,44.5
2018-08-04T09:28:05.162Z,44.4
2018-08-04T09:30:05.354Z,44.4
2018-08-04T09:32:07.586Z,44.5
2018-08-04T09:34:05.316Z,44.3
2018-08-04T09:36:06.037Z,44.6
2018-08-04T09:38:08.349Z,44.5
2018-08-04T09:40:05.646Z,44.4
2018-08-04T09:42:05.336Z,44.4
2018-08-04T09:44:05.026Z,44.5
2018-08-04T09:46:05.701Z,44.6
2018-08-04T09:48:05.381Z,44.4
2018-08-04T09:50:07.811Z,44.3
2018-08-04T09:52:05.004Z,44.4
2018-08-04T09:54:08.233Z,44.4
2018-08-04T09:56:05.995Z,44.4
2018-08-04T09:58:05.707Z,44.3
2018-08-04T10:00:08.428Z,44.3
2018-08-04T10:02:05.102Z,44.3
2018-08-04T10:04:10.815Z,44.4
2018-08-04T10:06:05.526Z,44.2
2018-08-04T10:08:10.742Z,44.4
2018-08-04T10:10:10.499Z,44.3
2018-08-04T10:12:05.218Z,44.3
2018-08-04T10:14:08.431Z,44.4
2018-08-04T10:16:05.225Z,44.4
2018-08-04T10:18:08.178Z,44.3
2018-08-04T10:20:05.913Z,44.3
2018-08-04T10:22:05.691Z,44.4
2018-08-04T10:24:05.433Z,44.4
2018-08-04T10:26:05.308Z,44.3
2018-08-04T10:28:05.309Z,44.4
2018-08-04T10:30:05.987Z,44.4
2018-08-04T10:32:08.387Z,44.5
2018-08-04T10:34:05.763Z,44.6
2018-08-04T10:36:05.432Z,44.6
2018-08-04T10:38:10.703Z,44.6
2018-08-04T10:40:06.734Z,44.6
2018-08-04T10:42:05.842Z,44.5
2018-08-04T10:44:08.039Z,44.5
2018-08-04T10:46:05.290Z,44.5
2018-08-04T10:48:08.524Z,44.4
2018-08-04T10:50:05.269Z,44.5
2018-08-04T10:52:05.052Z,44.8
2018-08-04T10:54:05.735Z,44.7
2018-08-04T10:56:05.360Z,44.5
2018-08-04T10:58:07.657Z,44.5
2018-08-04T11:00:05.290Z,44.5
2018-08-04T11:02:08.447Z,44.4
2018-08-04T11:04:15.267Z,44.3
2018-08-04T11:06:06.024Z,44.3
2018-08-04T11:08:07.746Z,44.1
2018-08-04T11:10:05.405Z,44.2
2018-08-04T11:12:05.088Z,44.1
2018-08-04T11:14:13.510Z,44.1
2018-08-04T11:16:07.762Z,44.1
2018-08-04T11:18:05.708Z,44.1
2018-08-04T11:20:05.629Z,44.1
2018-08-04T11:22:05.371Z,44.1
2018-08-04T11:24:06.825Z,44.1
2018-08-04T11:26:05.783Z,44.1
2018-08-04T11:28:05.568Z,44
2018-08-04T11:30:05.454Z,44.1
2018-08-04T11:32:10.197Z,44
2018-08-04T11:34:05.915Z,44
2018-08-04T11:36:05.618Z,43.9
2018-08-04T11:38:06.911Z,43.9
2018-08-04T11:40:05.598Z,43.9
2018-08-04T11:42:10.291Z,44
2018-08-04T11:44:05.989Z,44
2018-08-04T11:46:05.682Z,44
2018-08-04T11:48:07.936Z,44.1
2018-08-04T11:50:05.724Z,43.9
2018-08-04T11:52:05.406Z,43.9
2018-08-04T11:54:05.147Z,44
2018-08-04T11:56:08.378Z,43.9
2018-08-04T11:58:05.054Z,43.7
2018-08-04T12:00:08.311Z,43.7
2018-08-04T12:02:07.573Z,43.8
2018-08-04T12:04:05.277Z,43.7
2018-08-04T12:06:13.534Z,43.6
2018-08-04T12:08:05.210Z,43.5
2018-08-04T12:10:05.931Z,43.5
2018-08-04T12:12:05.628Z,43.4
2018-08-04T12:14:05.301Z,43.3
2018-08-04T12:16:05.123Z,43.3
2018-08-04T12:18:06.050Z,43.3
2018-08-04T12:20:08.561Z,43.1
2018-08-04T12:22:05.800Z,43.1
2018-08-04T12:24:05.476Z,43
2018-08-04T12:26:15.809Z,43
2018-08-04T12:28:10.619Z,43.1
2018-08-04T12:30:07.845Z,43
2018-08-04T12:32:05.532Z,43.1
2018-08-04T12:34:05.219Z,43
2018-08-04T12:36:08.421Z,43
2018-08-04T12:38:05.135Z,43
2018-08-04T12:40:05.807Z,43
2018-08-04T12:42:05.557Z,42.8
2018-08-04T12:44:05.268Z,42.5
2018-08-04T12:46:08.058Z,42.6
2018-08-04T12:48:08.275Z,42.6
2018-08-04T12:50:05.974Z,42.5
2018-08-04T12:52:08.272Z,42.8
2018-08-04T12:54:05.921Z,42.8
2018-08-04T12:56:05.157Z,42.9
2018-08-04T12:58:05.845Z,42.9
2018-08-04T13:00:05.519Z,42.8
2018-08-04T13:02:05.234Z,42.7
2018-08-04T13:04:08.484Z,42.7
2018-08-04T13:06:05.851Z,42.7
2018-08-04T13:08:05.586Z,42.9
2018-08-04T13:10:05.771Z,42.7
2018-08-04T13:12:05.608Z,42.8
2018-08-04T13:14:05.479Z,42.8
2018-08-04T13:16:05.233Z,42.7
2018-08-04T13:18:05.117Z,42.6
2018-08-04T13:20:05.331Z,42.5
2018-08-04T13:22:05.731Z,42.6
2018-08-04T13:24:05.809Z,42.6
2018-08-04T13:26:05.459Z,42.6
2018-08-04T13:28:05.345Z,42.7
2018-08-04T13:30:05.096Z,42.7
2018-08-04T13:32:08.283Z,42.8
2018-08-04T13:34:06.035Z,42.8
2018-08-04T13:36:05.733Z,42.8
2018-08-04T13:38:05.475Z,42.9
2018-08-04T13:40:05.213Z,42.8
2018-08-04T13:42:05.501Z,42.7
2018-08-04T13:44:07.753Z,42.7
2018-08-04T13:46:05.455Z,42.7
2018-08-04T13:48:05.147Z,42.7
2018-08-04T13:50:05.833Z,42.6
2018-08-04T13:52:05.251Z,42.5
2018-08-04T13:54:16.145Z,42.6
2018-08-04T13:56:05.846Z,42.5
2018-08-04T13:58:10.607Z,42.7
2018-08-04T14:00:05.320Z,42.7
2018-08-04T14:02:08.531Z,42.8
2018-08-04T14:04:05.306Z,42.8
2018-08-04T14:06:05.022Z,42.7
2018-08-04T14:08:05.712Z,42.8
2018-08-04T14:10:05.409Z,42.7
2018-08-04T14:12:05.222Z,42.7
2018-08-04T14:14:05.144Z,42.7
2018-08-04T14:16:05.457Z,43
2018-08-04T14:18:05.489Z,42.7
2018-08-04T14:20:05.188Z,42.9
2018-08-04T14:22:05.884Z,42.9
2018-08-04T14:24:05.558Z,42.8
2018-08-04T14:26:05.557Z,42.9
2018-08-04T14:28:05.365Z,43
2018-08-04T14:30:05.031Z,42.9
2018-08-04T14:32:05.693Z,42.9
2018-08-04T14:34:08.061Z,43.1
2018-08-04T14:36:06.031Z,43
2018-08-04T14:38:05.784Z,43
2018-08-04T14:40:08.034Z,43.1
2018-08-04T14:42:05.688Z,43
2018-08-04T14:44:05.387Z,43
2018-08-04T14:46:07.616Z,43.1
2018-08-04T14:48:05.249Z,43.1
2018-08-04T14:50:05.450Z,43
2018-08-04T14:52:05.164Z,43
2018-08-04T14:54:05.838Z,43.1
2018-08-04T14:56:13.163Z,43.1
2018-08-04T14:58:05.855Z,43.1
2018-08-04T15:00:08.066Z,43.2
2018-08-04T15:02:05.750Z,43.2
2018-08-04T15:04:07.999Z,43.3
2018-08-04T15:06:05.203Z,43.3
2018-08-04T15:08:05.421Z,43.3
2018-08-04T15:10:05.279Z,43.3
2018-08-04T15:12:05.071Z,43.4
2018-08-04T15:14:08.310Z,43.4
2018-08-04T15:16:05.554Z,43.4
2018-08-04T15:18:05.995Z,43.3
2018-08-04T15:20:08.199Z,43.3
2018-08-04T15:22:05.966Z,43.3
2018-08-04T15:24:05.662Z,43.4
2018-08-04T15:26:07.896Z,43.5
2018-08-04T15:28:05.685Z,43.5
2018-08-04T15:30:10.466Z,43.5
2018-08-04T15:32:05.174Z,43.4
2018-08-04T15:34:06.128Z,43.5
2018-08-04T15:36:10.895Z,43.7
2018-08-04T15:38:05.563Z,43.5
2018-08-04T15:40:05.334Z,43.6
2018-08-04T15:42:10.166Z,43.5
2018-08-04T15:44:05.901Z,43.5
2018-08-04T15:46:08.270Z,43.5
2018-08-04T15:48:11.193Z,43.5
2018-08-04T15:50:05.891Z,43.5
2018-08-04T15:52:06.910Z,43.5
2018-08-04T15:54:05.898Z,43.5
2018-08-04T15:56:05.188Z,43.5
2018-08-04T15:58:05.942Z,43.5
2018-08-04T16:00:10.707Z,43.4
2018-08-04T16:02:05.407Z,43.4
2018-08-04T16:04:05.191Z,43.4
2018-08-04T16:06:13.442Z,43.3
2018-08-04T16:08:07.703Z,43.3
2018-08-04T16:10:06.477Z,43.3
2018-08-04T16:12:05.274Z,43.3
2018-08-04T16:14:05.946Z,43.3
2018-08-04T16:16:05.202Z,43.2
2018-08-04T16:18:07.588Z,43.3
2018-08-04T16:20:12.826Z,43.3
2018-08-04T16:22:10.586Z,43.2
2018-08-04T16:24:05.269Z,43.3
2018-08-04T16:26:06.005Z,43.3
2018-08-04T16:28:05.713Z,43.4
2018-08-04T16:30:05.726Z,43.2
2018-08-04T16:32:05.694Z,43.3
2018-08-04T16:34:05.464Z,43.3
2018-08-04T16:36:07.638Z,43.3
2018-08-04T16:38:10.907Z,43.3
2018-08-04T16:40:05.171Z,43.3
2018-08-04T16:42:05.859Z,43.3
2018-08-04T16:44:05.523Z,43.3
2018-08-04T16:46:05.243Z,43.3
2018-08-04T16:48:05.957Z,43.2
2018-08-04T16:50:13.334Z,43.3
2018-08-04T16:52:04.998Z,43.3
2018-08-04T16:54:05.696Z,43.3
2018-08-04T16:56:08.057Z,43.3
2018-08-04T16:58:05.754Z,43.3
2018-08-04T17:00:05.420Z,43.2
2018-08-04T17:02:05.099Z,43.4
2018-08-04T17:04:05.276Z,43.4
2018-08-04T17:06:06.030Z,43.3
2018-08-04T17:08:08.267Z,43.3
2018-08-04T17:10:08.457Z,43.3
2018-08-04T17:12:05.143Z,43.3
2018-08-04T17:14:10.972Z,43.2
2018-08-04T17:16:05.776Z,43.4
2018-08-04T17:18:11.034Z,43.3
2018-08-04T17:20:11.019Z,43.4
2018-08-04T17:22:05.785Z,43.4
2018-08-04T17:24:05.600Z,43.3
2018-08-04T17:26:05.267Z,43.4
2018-08-04T17:28:05.935Z,43.3
2018-08-04T17:30:05.622Z,43.3
2018-08-04T17:32:05.469Z,43.3
2018-08-04T17:34:05.122Z,43.2
2018-08-04T17:36:05.928Z,43.3
2018-08-04T17:38:08.094Z,43.2
2018-08-04T17:40:08.263Z,43.1
2018-08-04T17:42:05.927Z,43.3
2018-08-04T17:44:05.693Z,43.3
2018-08-04T17:46:05.415Z,43.2
2018-08-04T17:48:05.125Z,43
2018-08-04T17:50:08.373Z,43
2018-08-04T17:52:05.069Z,43
2018-08-04T17:54:11.109Z,42.9
2018-08-04T17:56:08.402Z,42.8
2018-08-04T17:58:05.666Z,42.8
2018-08-04T18:00:07.866Z,42.9
2018-08-04T18:02:05.561Z,42.8
2018-08-04T18:04:05.975Z,42.8
2018-08-04T18:06:05.295Z,43
2018-08-04T18:08:05.990Z,43
2018-08-04T18:10:08.335Z,42.9
2018-08-04T18:12:05.049Z,42.9
2018-08-04T18:14:05.751Z,43.1
2018-08-04T18:16:05.427Z,43
2018-08-04T18:18:05.330Z,43
2018-08-04T18:20:15.688Z,43.1
2018-08-04T18:22:10.388Z,43.3
2018-08-04T18:24:05.244Z,43.2
2018-08-04T18:26:08.588Z,43.3
2018-08-04T18:28:05.493Z,43.3
2018-08-04T18:30:05.629Z,43.3
2018-08-04T18:32:05.690Z,43.3
2018-08-04T18:34:05.417Z,43.4
2018-08-04T18:36:05.375Z,43.4
2018-08-04T18:38:05.289Z,43.5
2018-08-04T18:40:06.026Z,43.6
2018-08-04T18:42:05.172Z,43.6
2018-08-04T18:44:10.948Z,43.8
2018-08-04T18:46:05.758Z,43.6
2018-08-04T18:48:08.037Z,43.8
2018-08-04T18:50:05.852Z,43.7
2018-08-04T18:52:06.232Z,43.7
2018-08-04T18:54:05.445Z,43.8
2018-08-04T18:56:05.161Z,43.9
2018-08-04T18:58:05.457Z,44
2018-08-04T19:00:05.140Z,44
2018-08-04T19:02:05.828Z,44.1
2018-08-04T19:04:05.537Z,44.1
2018-08-04T19:06:05.772Z,44.3
2018-08-04T19:08:05.490Z,44.3
2018-08-04T19:10:07.741Z,44.5
2018-08-04T19:12:08.033Z,44.3
2018-08-04T19:14:05.709Z,44.3
2018-08-04T19:16:05.556Z,44.6
2018-08-04T19:18:05.634Z,44.6
2018-08-04T19:20:05.326Z,44.5
2018-08-04T19:22:05.017Z,44.6
2018-08-04T19:24:13.278Z,44.7
2018-08-04T19:26:05.924Z,44.8
2018-08-04T19:28:08.255Z,44.8
2018-08-04T19:30:08.476Z,44.9
2018-08-04T19:32:05.689Z,44.9
2018-08-04T19:34:05.446Z,45
2018-08-04T19:36:07.783Z,45.2
2018-08-04T19:38:05.069Z,45
2018-08-04T19:40:05.795Z,45.1
2018-08-04T19:42:05.479Z,45.1
2018-08-04T19:44:05.212Z,44.9
2018-08-04T19:46:10.989Z,45.1
2018-08-04T19:48:05.380Z,45.1
2018-08-04T19:50:05.827Z,45.1
2018-08-04T19:52:07.774Z,45.1
2018-08-04T19:54:05.532Z,45.2
2018-08-04T19:56:05.229Z,45.1
2018-08-04T19:58:05.967Z,45.4
2018-08-04T20:00:05.684Z,45.2
2018-08-04T20:02:07.900Z,45.2
2018-08-04T20:04:05.590Z,45.2
2018-08-04T20:06:05.327Z,45.2
2018-08-04T20:08:05.970Z,45.2
2018-08-04T20:10:05.201Z,45.2
2018-08-04T20:12:08.390Z,45.3
2018-08-04T20:14:07.699Z,45.4
2018-08-04T20:16:05.436Z,45.3
2018-08-04T20:18:05.356Z,45.3
2018-08-04T20:20:08.066Z,45.4
2018-08-04T20:22:05.703Z,45.5
2018-08-04T20:24:05.946Z,45.4
2018-08-04T20:26:07.540Z,45.5
2018-08-04T20:28:05.288Z,45.5
2018-08-04T20:30:06.011Z,45.6
2018-08-04T20:32:13.290Z,45.6
2018-08-04T20:34:05.062Z,45.6
2018-08-04T20:36:05.774Z,45.5
2018-08-04T20:38:05.453Z,45.6
2018-08-04T20:40:05.100Z,45.6
2018-08-04T20:42:05.913Z,45.6
2018-08-04T20:44:05.602Z,45.6
2018-08-04T20:46:05.320Z,45.7
2018-08-04T20:48:05.008Z,45.8
2018-08-04T20:50:05.956Z,45.7
2018-08-04T20:52:05.654Z,45.8
2018-08-04T20:54:05.976Z,45.8
2018-08-04T20:56:05.742Z,45.8
2018-08-04T20:58:05.463Z,45.9
2018-08-04T21:00:05.196Z,45.8
2018-08-04T21:02:05.877Z,45.8
2018-08-04T21:04:05.604Z,45.8
2018-08-04T21:06:05.336Z,45.9
2018-08-04T21:08:05.061Z,45.7
2018-08-04T21:10:05.825Z,45.9
2018-08-04T21:12:05.024Z,45.9
2018-08-04T21:14:05.756Z,46
2018-08-04T21:16:05.453Z,46
2018-08-04T21:18:08.041Z,45.8
2018-08-04T21:20:05.973Z,45.9
2018-08-04T21:22:05.719Z,45.9
2018-08-04T21:24:05.627Z,45.9
2018-08-04T21:26:05.329Z,45.9
2018-08-04T21:28:06.056Z,45.8
2018-08-04T21:30:08.392Z,45.9
2018-08-04T21:32:05.068Z,45.9
2018-08-04T21:34:07.797Z,46
2018-08-04T21:36:05.509Z,46
2018-08-04T21:38:05.219Z,46
2018-08-04T21:40:08.415Z,45.8
2018-08-04T21:42:05.093Z,45.8
2018-08-04T21:44:06.075Z,46
2018-08-04T21:46:05.918Z,45.8
2018-08-04T21:48:05.598Z,45.8
2018-08-04T21:50:08.018Z,46.1
2018-08-04T21:52:05.306Z,45.9
2018-08-04T21:54:06.151Z,45.9
2018-08-04T21:56:05.323Z,46
2018-08-04T21:58:12.706Z,46
2018-08-04T22:00:07.925Z,46
2018-08-04T22:02:05.665Z,46
2018-08-04T22:04:05.052Z,46
2018-08-04T22:06:08.299Z,46.3
2018-08-04T22:08:05.019Z,46.1
2018-08-04T22:10:05.738Z,46.1
2018-08-04T22:12:05.426Z,46.1
2018-08-04T22:14:05.596Z,46.3
2018-08-04T22:16:05.338Z,46.3
2018-08-04T22:18:05.253Z,46.2
2018-08-04T22:20:05.942Z,46.2
2018-08-04T22:22:08.205Z,46.3
2018-08-04T22:24:08.434Z,46.3
2018-08-04T22:26:10.147Z,46.3
2018-08-04T22:28:08.407Z,46.3
2018-08-04T22:30:05.074Z,46.3
2018-08-04T22:32:05.762Z,46.4
2018-08-04T22:34:10.571Z,46.4
2018-08-04T22:36:05.756Z,46.3
2018-08-04T22:38:05.935Z,46.4
2018-08-04T22:40:05.679Z,46.5
2018-08-04T22:42:05.906Z,46.3
2018-08-04T22:44:05.856Z,46.4
2018-08-04T22:46:05.534Z,46.6
2018-08-04T22:48:10.255Z,46.4
2018-08-04T22:50:08.479Z,46.4
2018-08-04T22:52:05.733Z,46.4
2018-08-04T22:54:05.441Z,46.3
2018-08-04T22:56:07.670Z,46.3
2018-08-04T22:58:05.429Z,46.4
2018-08-04T23:00:05.069Z,46.4
2018-08-04T23:02:10.510Z,46.4
2018-08-04T23:04:05.249Z,46.4
2018-08-04T23:06:06.121Z,46.4
2018-08-04T23:08:08.336Z,46.5
2018-08-04T23:10:05.188Z,46.5
2018-08-04T23:12:05.930Z,46.5
2018-08-04T23:14:05.650Z,46.5
2018-08-04T23:16:05.296Z,46.4
2018-08-04T23:18:05.240Z,46.4
2018-08-04T23:20:05.463Z,46.5
2018-08-04T23:22:17.791Z,46.4
2018-08-04T23:24:05.481Z,46.4
2018-08-04T23:26:05.634Z,46.4
2018-08-04T23:28:05.874Z,46.4
2018-08-04T23:30:08.081Z,46.3
2018-08-04T23:32:05.293Z,46.3
2018-08-04T23:34:05.956Z,46.3
2018-08-04T23:36:08.115Z,46.4
2018-08-04T23:38:07.910Z,46.4
2018-08-04T23:40:07.681Z,46.3
2018-08-04T23:42:05.935Z,46.4
2018-08-04T23:44:05.634Z,46.3
2018-08-04T23:46:05.422Z,46.4
2018-08-04T23:48:07.603Z,46.4
2018-08-04T23:50:05.363Z,46.4
2018-08-04T23:52:05.175Z,46.3
2018-08-04T23:54:08.475Z,46.3
2018-08-04T23:56:05.197Z,46.3
2018-08-04T23:58:08.410Z,46.3
